Time;durP1;ratioP1;P1;durP2;ratioP2;P2;SDS_P1;SDS_P2;PMS_P1;PMS_P2;Temp;Humidity;BMP_temperature;BMP_pressure;BME280_temperature;BME280_humidity;BME280_pressure;Samples;Min_cycle;Max_cycle;Signal;HPM_P1;HPM_P2
2021/04/15 00:02:06;;;;;;;18.70;17.50;;;1.80;99.90;;;;;;5015725;28;20473;-73
2021/04/15 00:04:33;;;;;;;20.00;18.60;;;1.80;99.90;;;;;;5019996;28;20471;-73
2021/04/15 00:07:00;;;;;;;20.10;18.30;;;1.80;99.90;;;;;;5021426;28;20459;-73
2021/04/15 00:09:26;;;;;;;18.97;17.60;;;1.80;99.90;;;;;;5024209;28;20460;-73
2021/04/15 00:11:53;;;;;;;19.37;18.07;;;1.70;99.90;;;;;;5020816;28;20480;-73
2021/04/15 00:14:23;;;;;;;20.93;19.03;;;1.60;99.90;;;;;;5021739;28;20468;-74
2021/04/15 00:16:50;;;;;;;22.57;20.67;;;1.50;99.90;;;;;;5021024;28;20463;-74
2021/04/15 00:19:19;;;;;;;20.63;19.13;;;1.50;99.90;;;;;;5019849;28;20472;-74
2021/04/15 00:21:48;;;;;;;20.07;18.63;;;1.40;99.90;;;;;;5023782;28;20497;-74
2021/04/15 00:24:15;;;;;;;21.03;19.40;;;1.40;99.90;;;;;;5022120;28;20574;-74
2021/04/15 00:26:42;;;;;;;20.83;19.27;;;1.30;99.90;;;;;;5022505;28;20725;-74
2021/04/15 00:29:08;;;;;;;21.53;19.73;;;1.20;99.90;;;;;;5022799;28;20467;-74
2021/04/15 00:31:35;;;;;;;21.03;19.30;;;1.20;99.90;;;;;;5022559;28;20496;-74
2021/04/15 00:34:02;;;;;;;21.00;19.30;;;1.20;99.90;;;;;;5023076;28;20643;-74
2021/04/15 00:36:29;;;;;;;20.90;19.50;;;1.20;99.90;;;;;;5023162;28;20466;-74
2021/04/15 00:38:55;;;;;;;19.93;18.13;;;1.10;99.90;;;;;;5020717;28;20521;-74
2021/04/15 00:41:24;;;;;;;21.00;19.20;;;1.00;99.90;;;;;;5024444;28;20503;-74
2021/04/15 00:43:51;;;;;;;20.50;18.80;;;1.10;99.90;;;;;;5017176;28;20506;-73
2021/04/15 00:46:43;;;;;;;21.20;19.50;;;1.00;99.90;;;;;;5022503;28;20469;-74
2021/04/15 00:49:14;;;;;;;20.83;19.30;;;1.00;99.90;;;;;;5015021;28;20467;-74
2021/04/15 00:51:44;;;;;;;20.67;19.07;;;0.80;99.90;;;;;;5017694;28;21002;-74
2021/04/15 00:54:15;;;;;;;21.07;19.53;;;0.70;99.90;;;;;;5016562;28;20808;-73
2021/04/15 00:56:42;;;;;;;20.63;19.00;;;0.70;99.90;;;;;;5022598;28;20499;-74
2021/04/15 00:59:08;;;;;;;21.17;19.33;;;0.60;99.90;;;;;;5027201;28;20465;-73
2021/04/15 01:01:35;;;;;;;20.30;18.70;;;0.50;99.90;;;;;;5020062;28;20786;-74
2021/04/15 01:04:03;;;;;;;21.70;19.90;;;0.40;99.90;;;;;;5020397;28;20495;-74
2021/04/15 01:06:30;;;;;;;21.07;19.37;;;0.40;99.90;;;;;;5017940;28;20898;-73
2021/04/15 01:08:59;;;;;;;20.83;19.30;;;0.40;99.90;;;;;;5012883;28;20520;-73
2021/04/15 01:11:39;;;;;;;21.40;19.67;;;0.30;99.90;;;;;;5020508;28;20562;-72
2021/04/15 01:14:14;;;;;;;21.13;19.57;;;0.20;99.90;;;;;;5016083;28;20981;-72
2021/04/15 01:16:46;;;;;;;22.17;20.33;;;0.10;99.90;;;;;;5020734;28;20470;-72
2021/04/15 01:20:01;;;;;;;21.97;19.93;;;0.10;99.90;;;;;;5014274;28;20846;-72
2021/04/15 01:22:46;;;;;;;21.23;19.53;;;0.00;99.90;;;;;;4995800;28;20497;-72
2021/04/15 01:25:24;;;;;;;22.13;20.03;;;-0.10;99.90;;;;;;5018456;28;20466;-72
2021/04/15 01:27:53;;;;;;;22.97;21.17;;;0.00;99.90;;;;;;5017114;28;20472;-71
2021/04/15 01:30:28;;;;;;;23.93;21.40;;;0.00;99.90;;;;;;5022293;28;21071;-72
2021/04/15 01:33:09;;;;;;;22.30;20.03;;;0.10;99.90;;;;;;5020391;28;20490;-73
2021/04/15 01:35:41;;;;;;;23.30;21.50;;;0.00;99.90;;;;;;5022053;28;20495;-72
2021/04/15 01:38:11;;;;;;;22.47;20.77;;;-0.10;99.90;;;;;;5017567;28;20465;-72
2021/04/15 01:40:43;;;;;;;21.57;19.97;;;-0.20;99.90;;;;;;5019176;28;20531;-72
2021/04/15 01:43:16;;;;;;;22.50;20.80;;;-0.40;99.90;;;;;;5020701;28;20495;-72
2021/04/15 01:45:45;;;;;;;22.30;20.60;;;-0.50;99.90;;;;;;5022980;28;20990;-73
2021/04/15 01:48:14;;;;;;;22.53;20.70;;;-0.40;99.90;;;;;;5024005;28;20460;-72
2021/04/15 01:50:47;;;;;;;23.40;21.37;;;-0.40;99.90;;;;;;5022424;28;20457;-72
2021/04/15 01:53:20;;;;;;;22.50;20.60;;;-0.40;99.90;;;;;;5018291;28;20782;-72
2021/04/15 01:55:51;;;;;;;22.43;20.80;;;-0.30;99.90;;;;;;5016326;28;20453;-72
2021/04/15 01:58:21;;;;;;;22.40;20.53;;;-0.40;99.90;;;;;;5023632;28;20457;-72
2021/04/15 02:00:55;;;;;;;21.60;19.63;;;-0.50;99.90;;;;;;5022232;28;20769;-72
2021/04/15 02:03:28;;;;;;;22.33;20.43;;;-0.40;99.90;;;;;;5024132;28;20488;-72
2021/04/15 02:05:59;;;;;;;19.47;18.10;;;-0.50;99.90;;;;;;5018901;28;21007;-73
2021/04/15 02:08:28;;;;;;;20.10;18.10;;;-0.50;99.90;;;;;;5023490;28;20460;-73
2021/04/15 02:11:04;;;;;;;19.43;17.70;;;-0.50;99.90;;;;;;5016153;28;20466;-72
2021/04/15 02:13:33;;;;;;;21.13;17.63;;;-0.60;99.90;;;;;;5017430;28;20460;-72
2021/04/15 02:16:05;;;;;;;19.37;17.77;;;-0.60;99.90;;;;;;5020884;28;20523;-72
2021/04/15 02:18:36;;;;;;;17.93;16.63;;;-0.70;99.90;;;;;;5018951;28;20464;-73
2021/04/15 02:21:10;;;;;;;19.63;18.13;;;-0.70;99.90;;;;;;5024691;28;20601;-73
2021/04/15 02:23:42;;;;;;;19.60;18.00;;;-0.80;99.90;;;;;;5016952;28;20506;-72
2021/04/15 02:26:13;;;;;;;20.50;18.70;;;-0.80;99.90;;;;;;5015712;28;20475;-72
2021/04/15 02:28:45;;;;;;;19.53;17.40;;;-0.90;99.90;;;;;;5020447;28;20476;-72
2021/04/15 02:31:18;;;;;;;18.70;17.40;;;-0.90;99.90;;;;;;5013825;28;20990;-72
2021/04/15 02:33:51;;;;;;;20.20;18.40;;;-0.90;99.90;;;;;;5012901;28;20890;-71
2021/04/15 02:36:20;;;;;;;20.33;18.70;;;-0.90;99.90;;;;;;5024142;28;20453;-72
2021/04/15 02:38:52;;;;;;;21.60;18.50;;;-0.80;99.90;;;;;;5022220;28;20965;-71
2021/04/15 02:41:24;;;;;;;20.50;18.60;;;-0.80;99.90;;;;;;5020939;28;20471;-71
2021/04/15 02:43:56;;;;;;;27.90;19.33;;;-0.90;99.90;;;;;;5014630;28;20507;-71
2021/04/15 02:46:29;;;;;;;20.00;18.50;;;-0.90;99.90;;;;;;5020719;28;20534;-71
2021/04/15 02:49:00;;;;;;;20.23;18.50;;;-0.90;99.90;;;;;;5021120;28;20469;-72
2021/04/15 02:51:30;;;;;;;19.97;18.27;;;-0.90;99.90;;;;;;5017571;28;20472;-72
2021/04/15 02:54:02;;;;;;;19.53;18.03;;;-0.90;99.90;;;;;;5016587;28;20487;-71
2021/04/15 02:56:35;;;;;;;19.93;17.50;;;-0.90;99.90;;;;;;5015812;28;20898;-71
2021/04/15 02:59:07;;;;;;;19.90;18.30;;;-0.90;99.90;;;;;;5018315;28;20516;-72
2021/04/15 03:01:39;;;;;;;19.90;18.10;;;-0.90;99.90;;;;;;5015004;28;20501;-72
2021/04/15 03:04:10;;;;;;;20.77;18.67;;;-0.90;99.90;;;;;;5018640;28;20830;-71
2021/04/15 03:06:37;;;;;;;18.83;17.37;;;-1.00;99.90;;;;;;5023730;28;21031;-72
2021/04/15 03:09:08;;;;;;;19.57;17.93;;;-1.10;99.90;;;;;;5022130;28;20559;-72
2021/04/15 03:11:42;;;;;;;19.03;17.53;;;-1.20;99.90;;;;;;5020033;28;20949;-71
2021/04/15 03:14:13;;;;;;;21.50;19.53;;;-1.10;99.90;;;;;;5018461;28;20986;-71
2021/04/15 03:16:43;;;;;;;20.30;18.80;;;-1.20;99.90;;;;;;5025516;28;20491;-71
2021/04/15 03:19:13;;;;;;;21.17;19.50;;;-1.10;99.90;;;;;;5021020;28;20467;-71
2021/04/15 03:21:46;;;;;;;19.03;17.43;;;-1.10;99.90;;;;;;5024678;28;20461;-72
2021/04/15 03:24:17;;;;;;;19.73;17.80;;;-1.10;99.90;;;;;;5027273;28;20499;-72
2021/04/15 03:26:49;;;;;;;19.50;17.90;;;-1.10;99.90;;;;;;5020641;28;21018;-72
2021/04/15 03:29:24;;;;;;;20.77;18.97;;;-1.10;99.90;;;;;;5020132;28;20491;-72
2021/04/15 03:32:09;;;;;;;19.17;17.63;;;-1.20;99.90;;;;;;5015942;28;20552;-72
2021/04/15 03:34:40;;;;;;;19.70;17.90;;;-1.20;99.90;;;;;;5022942;28;20486;-72
2021/04/15 03:37:10;;;;;;;19.53;17.90;;;-1.20;99.90;;;;;;5022212;28;20515;-72
2021/04/15 03:39:37;;;;;;;20.17;18.57;;;-1.20;99.90;;;;;;5017926;28;20462;-72
2021/04/15 03:42:12;;;;;;;19.77;18.03;;;-1.20;99.90;;;;;;5026620;28;20530;-72
2021/04/15 03:44:42;;;;;;;20.43;18.80;;;-1.20;99.90;;;;;;5022597;28;20492;-72
2021/04/15 03:47:14;;;;;;;20.10;18.40;;;-1.20;99.90;;;;;;5020774;28;20473;-72
2021/04/15 03:49:45;;;;;;;21.13;19.43;;;-1.30;99.90;;;;;;5020329;28;20469;-71
2021/04/15 03:52:14;;;;;;;20.77;19.00;;;-1.30;99.90;;;;;;5019815;28;20470;-71
2021/04/15 03:54:44;;;;;;;20.83;18.90;;;-1.30;99.90;;;;;;5015479;28;20468;-72
2021/04/15 03:57:15;;;;;;;19.60;18.00;;;-1.40;99.90;;;;;;5022447;28;20639;-72
2021/04/15 03:59:45;;;;;;;19.83;18.03;;;-1.40;99.90;;;;;;5027919;28;20478;-72
2021/04/15 04:02:16;;;;;;;22.57;20.57;;;-1.40;99.90;;;;;;5023908;28;20467;-72
2021/04/15 04:04:49;;;;;;;21.03;19.20;;;-1.50;99.90;;;;;;5020283;28;20495;-71
2021/04/15 04:07:19;;;;;;;21.00;18.77;;;-1.40;99.90;;;;;;5011385;28;20472;-73
2021/04/15 04:09:54;;;;;;;20.37;18.53;;;-1.50;99.90;;;;;;5013534;28;20933;-72
2021/04/15 04:12:25;;;;;;;21.03;19.10;;;-1.60;99.90;;;;;;5021888;28;20470;-72
2021/04/15 04:14:55;;;;;;;20.60;18.90;;;-1.60;99.90;;;;;;5016058;28;20467;-72
2021/04/15 04:17:28;;;;;;;17.90;16.43;;;-1.60;99.90;;;;;;5016960;28;20488;-73
2021/04/15 04:19:56;;;;;;;17.33;15.80;;;-1.50;99.90;;;;;;5016286;28;20562;-72
2021/04/15 04:22:33;;;;;;;19.00;17.60;;;-1.60;99.90;;;;;;5020406;28;20460;-73
2021/04/15 04:25:07;;;;;;;20.73;19.03;;;-1.60;99.90;;;;;;5020761;28;20454;-73
2021/04/15 04:27:37;;;;;;;20.57;18.87;;;-1.60;99.90;;;;;;5021547;28;20540;-72
2021/04/15 04:30:08;;;;;;;20.63;18.60;;;-1.50;99.90;;;;;;5015925;28;20520;-72
2021/04/15 04:32:36;;;;;;;20.63;18.80;;;-1.50;99.90;;;;;;5017809;28;21047;-72
2021/04/15 04:35:04;;;;;;;21.70;19.57;;;-1.50;99.90;;;;;;5023508;28;20461;-73
2021/04/15 04:37:37;;;;;;;20.10;18.50;;;-1.50;99.90;;;;;;5025011;28;20461;-73
2021/04/15 04:40:07;;;;;;;21.53;19.70;;;-1.50;99.90;;;;;;5020969;28;20463;-73
2021/04/15 04:42:40;;;;;;;22.63;20.50;;;-1.50;99.90;;;;;;5019693;28;20461;-72
2021/04/15 04:45:09;;;;;;;21.40;19.50;;;-1.50;99.90;;;;;;5022876;28;20461;-72
2021/04/15 04:47:42;;;;;;;22.03;20.13;;;-1.40;99.90;;;;;;5017762;28;20458;-72
2021/04/15 04:50:13;;;;;;;22.33;20.43;;;-1.40;99.90;;;;;;5021672;28;20524;-72
2021/04/15 04:52:41;;;;;;;23.60;21.20;;;-1.50;99.90;;;;;;5017805;28;20469;-72
2021/04/15 04:55:27;;;;;;;26.63;19.70;;;-1.50;99.90;;;;;;5023120;28;20474;-72
2021/04/15 04:57:54;;;;;;;21.60;19.73;;;-1.50;99.90;;;;;;5024189;28;20467;-72
2021/04/15 05:00:22;;;;;;;24.17;21.33;;;-1.50;99.90;;;;;;5023135;28;20467;-72
2021/04/15 05:02:54;;;;;;;21.60;19.60;;;-1.50;99.90;;;;;;5019692;28;21009;-73
2021/04/15 05:05:25;;;;;;;23.97;21.57;;;-1.50;99.90;;;;;;5017826;28;20471;-72
2021/04/15 05:07:58;;;;;;;21.00;19.33;;;-1.50;99.90;;;;;;5022672;28;20469;-72
2021/04/15 05:10:26;;;;;;;21.97;19.80;;;-1.40;99.90;;;;;;5017890;28;20769;-72
2021/04/15 05:13:04;;;;;;;21.03;19.27;;;-1.40;99.90;;;;;;5018889;28;20474;-73
2021/04/15 05:15:30;;;;;;;21.20;19.20;;;-1.30;99.90;;;;;;5027370;28;20485;-73
2021/04/15 05:17:58;;;;;;;20.40;18.80;;;-1.40;99.90;;;;;;5022374;28;20467;-72
2021/04/15 05:20:27;;;;;;;21.97;19.77;;;-1.30;99.90;;;;;;5020708;28;20493;-72
2021/04/15 05:22:58;;;;;;;20.57;19.07;;;-1.20;99.90;;;;;;5012979;28;21020;-72
2021/04/15 05:25:31;;;;;;;23.67;21.70;;;-1.10;99.90;;;;;;5025377;28;20468;-73
2021/04/15 05:27:58;;;;;;;22.63;20.40;;;-1.10;99.90;;;;;;5019915;28;20461;-73
2021/04/15 05:30:40;;;;;;;23.43;21.20;;;-0.90;99.90;;;;;;5015523;28;20467;-72
2021/04/15 05:33:13;;;;;;;23.83;21.80;;;-0.80;99.90;;;;;;5019764;28;20602;-73
2021/04/15 05:35:43;;;;;;;23.97;21.57;;;-0.70;99.90;;;;;;5017518;28;20460;-73
2021/04/15 05:38:12;;;;;;;22.47;20.67;;;-0.60;99.90;;;;;;5021123;28;20872;-73
2021/04/15 05:40:39;;;;;;;22.87;20.97;;;-0.60;99.90;;;;;;5021079;28;20514;-72
2021/04/15 05:43:36;;;;;;;24.77;22.17;;;-0.60;99.90;;;;;;5019567;28;20813;-73
2021/04/15 05:46:10;;;;;;;23.80;21.73;;;-0.50;99.90;;;;;;5014838;28;20482;-73
2021/04/15 05:48:40;;;;;;;23.63;21.63;;;-0.40;99.90;;;;;;5019099;28;20825;-73
2021/04/15 05:51:12;;;;;;;24.30;22.10;;;-0.30;99.90;;;;;;5014500;28;20473;-72
2021/04/15 05:53:42;;;;;;;24.50;22.30;;;-0.20;99.90;;;;;;5013682;28;20469;-73
2021/04/15 05:56:13;;;;;;;25.73;22.97;;;-0.10;99.90;;;;;;5020951;28;20818;-73
2021/04/15 05:58:46;;;;;;;25.43;23.13;;;-0.10;99.90;;;;;;5019180;28;20824;-73
2021/04/15 06:01:19;;;;;;;24.30;22.10;;;0.00;99.90;;;;;;5021329;28;20530;-73
2021/04/15 06:03:57;;;;;;;25.10;22.60;;;0.10;99.90;;;;;;5022388;28;20490;-73
2021/04/15 06:06:28;;;;;;;27.00;24.43;;;0.20;99.90;;;;;;5015663;28;20484;-73
2021/04/15 06:08:55;;;;;;;25.17;22.60;;;0.30;99.90;;;;;;5021281;28;20470;-73
2021/04/15 06:11:35;;;;;;;27.13;24.83;;;0.50;99.90;;;;;;5024276;28;20508;-73
2021/04/15 06:14:06;;;;;;;26.53;24.20;;;0.50;99.90;;;;;;5021524;28;20460;-73
2021/04/15 06:16:38;;;;;;;26.87;24.57;;;0.60;99.90;;;;;;5016401;28;20506;-73
2021/04/15 06:19:15;;;;;;;28.33;25.40;;;0.70;99.90;;;;;;5017776;28;20462;-73
2021/04/15 06:21:44;;;;;;;25.30;23.10;;;0.70;99.90;;;;;;5018594;28;20557;-73
2021/04/15 06:24:14;;;;;;;25.97;23.40;;;0.80;99.90;;;;;;5022407;28;20502;-73
2021/04/15 06:26:44;;;;;;;28.13;25.37;;;0.90;99.90;;;;;;5015689;28;20824;-74
2021/04/15 06:29:27;;;;;;;29.83;27.17;;;1.10;99.90;;;;;;5018559;28;20479;-74
2021/04/15 06:31:58;;;;;;;30.10;27.03;;;1.30;99.90;;;;;;5024262;28;20490;-74
2021/04/15 06:34:27;;;;;;;33.60;30.10;;;1.40;99.90;;;;;;5018955;28;20461;-73
2021/04/15 06:37:02;;;;;;;31.40;28.27;;;1.60;99.90;;;;;;5016505;28;21040;-73
2021/04/15 06:39:32;;;;;;;32.30;29.10;;;1.70;99.90;;;;;;5022924;28;20472;-72
2021/04/15 06:42:27;;;;;;;33.73;30.30;;;1.80;99.90;;;;;;5023257;28;20491;-73
2021/04/15 06:45:21;;;;;;;34.30;30.73;;;2.00;99.90;;;;;;5024387;28;20519;-73
2021/04/15 06:48:16;;;;;;;34.77;31.40;;;2.10;99.90;;;;;;5020076;28;20945;-72
2021/04/15 06:50:54;;;;;;;38.57;33.60;;;2.30;99.90;;;;;;5022712;28;20461;-71
2021/04/15 06:53:33;;;;;;;38.63;33.97;;;2.50;99.90;;;;;;5019598;28;20830;-74
2021/04/15 06:56:15;;;;;;;38.33;34.70;;;2.60;99.90;;;;;;5008147;28;20473;-74
2021/04/15 06:58:58;;;;;;;37.73;33.90;;;2.70;99.90;;;;;;5013699;28;20468;-72
2021/04/15 07:02:02;;;;;;;33.20;30.33;;;2.90;99.90;;;;;;5009768;28;21007;-71
2021/04/15 07:04:33;;;;;;;32.10;29.17;;;3.20;99.90;;;;;;4930694;28;20511;-72
2021/04/15 07:07:08;;;;;;;33.43;30.20;;;3.30;99.90;;;;;;4934474;29;20469;-73
2021/04/15 07:10:04;;;;;;;31.47;28.77;;;3.50;99.90;;;;;;4979703;28;20461;-73
2021/04/15 07:13:00;;;;;;;31.07;28.37;;;3.70;99.90;;;;;;5018624;28;20466;-72
2021/04/15 07:15:42;;;;;;;31.07;28.00;;;3.80;99.90;;;;;;5019520;28;20473;-73
2021/04/15 07:18:39;;;;;;;30.70;27.90;;;3.90;99.90;;;;;;5018093;28;20479;-73
2021/04/15 07:21:42;;;;;;;32.90;29.77;;;4.10;99.90;;;;;;5020500;28;20851;-73
2021/04/15 07:24:31;;;;;;;31.93;29.03;;;4.20;99.90;;;;;;5022948;28;20487;-74
2021/04/15 07:27:33;;;;;;;29.63;27.03;;;4.20;99.90;;;;;;5020551;28;20465;-72
2021/04/15 07:30:25;;;;;;;30.53;27.30;;;4.30;99.90;;;;;;5000201;28;20495;-75
2021/04/15 07:33:19;;;;;;;28.63;26.07;;;4.40;99.90;;;;;;5020300;28;20498;-73
2021/04/15 07:35:58;;;;;;;27.03;24.83;;;4.50;99.90;;;;;;5018237;28;20469;-74
2021/04/15 07:38:56;;;;;;;28.00;25.20;;;4.60;99.90;;;;;;5023495;28;20468;-73
2021/04/15 07:41:33;;;;;;;26.10;24.00;;;4.90;99.90;;;;;;5019041;28;20494;-75
2021/04/15 07:44:27;;;;;;;26.60;24.20;;;4.90;99.90;;;;;;5015738;28;20534;-73
2021/04/15 07:47:15;;;;;;;25.50;23.40;;;4.90;99.90;;;;;;5014317;28;20580;-74
2021/04/15 07:50:10;;;;;;;25.63;23.53;;;5.20;99.90;;;;;;5013381;28;20461;-77
2021/04/15 07:53:07;;;;;;;24.53;22.03;;;5.40;99.90;;;;;;4971109;28;20999;-73
2021/04/15 07:56:09;;;;;;;21.13;19.00;;;5.40;99.90;;;;;;5013324;28;20547;-74
2021/04/15 07:58:49;;;;;;;20.87;19.20;;;5.40;99.90;;;;;;5011685;28;20476;-75
2021/04/15 08:01:47;;;;;;;21.43;19.83;;;5.70;99.90;;;;;;5018759;28;20466;-74
2021/04/15 08:04:52;;;;;;;21.10;19.60;;;5.90;99.90;;;;;;5011466;28;20503;-74
2021/04/15 08:07:48;;;;;;;19.83;18.43;;;6.10;99.90;;;;;;5019469;28;20470;-73
2021/04/15 08:10:39;;;;;;;18.90;17.60;;;6.20;99.90;;;;;;5002265;28;20960;-72
2021/04/15 08:13:40;;;;;;;20.00;18.60;;;6.30;99.90;;;;;;5010966;28;20842;-75
2021/04/15 08:16:31;;;;;;;19.90;18.57;;;6.60;99.90;;;;;;5016358;28;20457;-76
2021/04/15 08:19:11;;;;;;;19.83;18.47;;;7.00;99.90;;;;;;5018318;28;20483;-73
2021/04/15 08:21:43;;;;;;;20.63;18.40;;;7.30;99.90;;;;;;5019560;28;20466;-73
2021/04/15 08:24:31;;;;;;;19.60;18.10;;;7.60;99.90;;;;;;5016186;28;20490;-73
2021/04/15 08:27:29;;;;;;;21.00;19.40;;;8.00;99.90;;;;;;5018384;28;20844;-74
2021/04/15 08:30:23;;;;;;;20.13;18.70;;;8.50;99.90;;;;;;5012663;28;20476;-74
2021/04/15 08:33:15;;;;;;;20.00;18.60;;;8.50;99.90;;;;;;5016913;28;20982;-75
2021/04/15 08:36:03;;;;;;;19.00;17.50;;;8.90;99.90;;;;;;5015757;28;20599;-73
2021/04/15 08:38:44;;;;;;;20.30;18.47;;;8.70;99.90;;;;;;5013150;28;20521;-76
2021/04/15 08:41:19;;;;;;;19.37;17.93;;;9.10;99.90;;;;;;5014980;28;20990;-73
2021/04/15 08:44:19;;;;;;;18.63;17.27;;;9.20;99.90;;;;;;5015171;28;20483;-73
2021/04/15 08:46:55;;;;;;;18.33;17.23;;;9.20;99.90;;;;;;5003960;28;20464;-74
2021/04/15 08:49:32;;;;;;;18.40;17.30;;;9.80;99.90;;;;;;5015632;28;20629;-78
2021/04/15 08:52:18;;;;;;;17.97;16.77;;;9.80;99.90;;;;;;5011369;28;20472;-73
2021/04/15 08:54:58;;;;;;;18.23;17.03;;;9.90;99.90;;;;;;5007024;28;21217;-74
2021/04/15 08:57:39;;;;;;;19.27;17.97;;;10.10;99.90;;;;;;5019649;28;20971;-74
2021/04/15 09:00:17;;;;;;;19.20;17.73;;;10.20;99.90;;;;;;5026807;28;20464;-74
2021/04/15 09:03:07;;;;;;;18.53;16.90;;;10.60;99.90;;;;;;5011864;28;20472;-78
2021/04/15 09:05:58;;;;;;;18.70;17.40;;;11.20;99.90;;;;;;5009445;28;20749;-77
2021/04/15 09:08:32;;;;;;;17.90;16.70;;;12.30;99.90;;;;;;5010694;28;20549;-73
2021/04/15 09:11:08;;;;;;;19.47;17.83;;;12.70;99.90;;;;;;5012503;28;20461;-73
2021/04/15 09:13:42;;;;;;;18.80;17.60;;;14.00;99.90;;;;;;5007320;28;20465;-73
2021/04/15 09:16:24;;;;;;;19.40;18.03;;;14.80;96.70;;;;;;5014969;28;20795;-75
2021/04/15 09:19:00;;;;;;;18.13;16.90;;;14.40;94.80;;;;;;5012871;28;20471;-73
2021/04/15 09:21:46;;;;;;;18.43;17.23;;;13.30;94.90;;;;;;5011969;28;21014;-74
2021/04/15 09:24:30;;;;;;;18.63;17.13;;;12.10;96.50;;;;;;5016927;28;20751;-74
2021/04/15 09:27:24;;;;;;;19.67;17.97;;;11.10;98.80;;;;;;5010847;28;20572;-73
2021/04/15 09:30:01;;;;;;;18.33;17.23;;;11.60;98.00;;;;;;5022043;28;20456;-73
2021/04/15 09:32:38;;;;;;;18.53;17.20;;;11.50;98.60;;;;;;5022796;28;20587;-73
2021/04/15 09:35:18;;;;;;;19.33;17.80;;;12.50;98.20;;;;;;5008575;28;20462;-75
2021/04/15 09:38:18;;;;;;;19.87;18.67;;;12.60;97.10;;;;;;5014669;28;20467;-73
2021/04/15 09:40:56;;;;;;;19.70;18.40;;;14.00;94.70;;;;;;5017597;28;20877;-74
2021/04/15 09:43:47;;;;;;;18.30;17.10;;;13.60;94.20;;;;;;5012977;28;21272;-73
2021/04/15 09:46:17;;;;;;;17.80;16.63;;;11.50;94.00;;;;;;5015487;28;20461;-73
2021/04/15 09:49:00;;;;;;;18.80;17.77;;;10.50;94.60;;;;;;5016447;28;20471;-73
2021/04/15 09:52:02;;;;;;;19.73;17.93;;;10.60;95.40;;;;;;5018880;28;20466;-73
2021/04/15 09:54:41;;;;;;;18.67;17.30;;;10.60;96.40;;;;;;5015515;28;20469;-72
2021/04/15 09:57:21;;;;;;;18.63;17.43;;;10.00;96.50;;;;;;5018998;28;20457;-73
2021/04/15 10:00:01;;;;;;;18.00;17.00;;;10.60;94.40;;;;;;5013700;28;20495;-73
2021/04/15 10:02:35;;;;;;;19.50;18.30;;;11.60;95.20;;;;;;5019107;28;20860;-73
2021/04/15 10:05:05;;;;;;;19.33;17.70;;;12.20;94.60;;;;;;5012540;28;20489;-74
2021/04/15 10:07:36;;;;;;;17.53;16.43;;;13.00;94.00;;;;;;5018646;28;20460;-74
2021/04/15 10:10:16;;;;;;;18.00;16.80;;;14.20;91.10;;;;;;5020887;28;20461;-72
2021/04/15 10:13:15;;;;;;;19.57;18.17;;;14.00;90.60;;;;;;5013350;28;20456;-73
2021/04/15 10:15:48;;;;;;;18.87;17.77;;;14.30;88.20;;;;;;5001492;28;20469;-72
2021/04/15 10:18:26;;;;;;;19.50;18.30;;;14.20;86.50;;;;;;5017625;28;20465;-72
2021/04/15 10:21:20;;;;;;;19.73;18.53;;;13.90;87.00;;;;;;5017095;28;20468;-72
2021/04/15 10:24:11;;;;;;;19.43;18.10;;;14.40;85.20;;;;;;5018408;28;20492;-72
2021/04/15 10:27:19;;;;;;;19.10;18.00;;;14.10;84.30;;;;;;5015708;28;20469;-72
2021/04/15 10:30:20;;;;;;;20.33;19.03;;;14.50;84.20;;;;;;4993065;28;20461;-74
2021/04/15 10:33:24;;;;;;;19.97;18.03;;;15.70;83.00;;;;;;5010171;28;20488;-73
2021/04/15 10:36:22;;;;;;;17.87;16.50;;;17.10;79.40;;;;;;5015022;28;20471;-74
2021/04/15 10:39:13;;;;;;;19.47;18.07;;;17.00;74.80;;;;;;5016755;28;20472;-73
2021/04/15 10:42:10;;;;;;;22.33;20.63;;;15.40;77.70;;;;;;5019601;28;20464;-72
2021/04/15 10:44:58;;;;;;;24.30;22.00;;;14.00;82.40;;;;;;5014460;28;20499;-72
2021/04/15 10:47:39;;;;;;;21.50;19.90;;;13.90;87.30;;;;;;5013376;28;20465;-74
2021/04/15 10:50:18;;;;;;;23.30;21.40;;;14.50;85.40;;;;;;5012325;28;20472;-72
2021/04/15 10:53:07;;;;;;;21.77;20.20;;;15.30;84.20;;;;;;5014536;28;20468;-73
2021/04/15 10:55:44;;;;;;;21.10;19.60;;;15.70;79.60;;;;;;5015170;28;20465;-72
2021/04/15 10:58:33;;;;;;;19.83;18.47;;;16.20;83.50;;;;;;5017090;28;20497;-73
2021/04/15 11:01:20;;;;;;;19.93;18.47;;;16.30;77.30;;;;;;5017044;28;20471;-73
2021/04/15 11:03:48;;;;;;;19.30;17.83;;;17.20;76.60;;;;;;5018188;28;20496;-72
2021/04/15 11:06:34;;;;;;;19.30;18.20;;;16.80;69.90;;;;;;5018602;28;20493;-73
2021/04/15 11:09:33;;;;;;;18.87;17.77;;;15.70;68.80;;;;;;5014177;28;20474;-72
2021/04/15 11:12:04;;;;;;;18.77;17.67;;;16.20;70.60;;;;;;4935643;29;20935;-73
2021/04/15 11:14:35;;;;;;;17.90;16.90;;;16.30;67.80;;;;;;5004843;28;20468;-74
2021/04/15 11:17:14;;;;;;;17.90;16.87;;;16.10;68.70;;;;;;5013706;28;20468;-73
2021/04/15 11:19:40;;;;;;;18.43;17.20;;;16.80;66.90;;;;;;5010655;28;20489;-74
2021/04/15 11:22:20;;;;;;;18.70;17.53;;;16.60;67.30;;;;;;5018317;28;20466;-73
2021/04/15 11:24:46;;;;;;;18.90;17.60;;;16.50;64.20;;;;;;5010578;28;20913;-73
2021/04/15 11:27:13;;;;;;;18.20;17.10;;;16.50;64.70;;;;;;5016485;28;20464;-74
2021/04/15 11:29:44;;;;;;;18.30;17.17;;;18.10;64.00;;;;;;5017049;28;20877;-74
2021/04/15 11:32:30;;;;;;;17.40;16.20;;;18.00;62.10;;;;;;5016115;28;20500;-74
2021/04/15 11:35:10;;;;;;;16.77;15.77;;;18.40;61.50;;;;;;5017315;28;20460;-75
2021/04/15 11:37:38;;;;;;;17.13;16.23;;;18.60;59.00;;;;;;5013967;28;20464;-74
2021/04/15 11:40:22;;;;;;;19.80;17.50;;;19.90;58.70;;;;;;5019847;28;21024;-74
2021/04/15 11:42:49;;;;;;;25.83;17.20;;;19.90;59.10;;;;;;5021796;28;20789;-74
2021/04/15 11:45:29;;;;;;;18.87;17.67;;;19.20;59.70;;;;;;5022497;28;20491;-74
2021/04/15 11:48:17;;;;;;;18.47;17.27;;;17.50;58.90;;;;;;5020267;28;20457;-76
2021/04/15 11:50:44;;;;;;;18.30;16.90;;;16.00;61.40;;;;;;5010424;28;20502;-75
2021/04/15 11:53:25;;;;;;;19.50;17.80;;;15.20;65.20;;;;;;5014882;28;20469;-76
2021/04/15 11:56:09;;;;;;;18.87;17.70;;;15.30;71.80;;;;;;5015347;28;20965;-75
2021/04/15 11:58:36;;;;;;;19.23;17.97;;;16.30;67.30;;;;;;5015929;28;20461;-74
2021/04/15 12:01:02;;;;;;;18.90;17.67;;;15.40;63.10;;;;;;5021581;28;20469;-75
2021/04/15 12:03:30;;;;;;;19.13;18.03;;;16.30;64.80;;;;;;5015828;28;20981;-76
2021/04/15 12:06:03;;;;;;;19.20;17.87;;;16.30;60.40;;;;;;5019639;28;20565;-74
2021/04/15 12:08:34;;;;;;;18.33;17.13;;;15.70;60.70;;;;;;5014369;28;20468;-74
2021/04/15 12:11:04;;;;;;;18.53;17.17;;;15.60;62.10;;;;;;5017207;28;20557;-74
2021/04/15 12:13:35;;;;;;;18.07;16.90;;;17.70;59.70;;;;;;5019925;28;20469;-75
2021/04/15 12:16:11;;;;;;;18.17;16.73;;;17.90;59.10;;;;;;5019554;28;20460;-75
2021/04/15 12:18:42;;;;;;;19.53;18.33;;;16.80;61.00;;;;;;5019449;28;20462;-76
2021/04/15 12:21:16;;;;;;;18.37;17.27;;;15.80;61.50;;;;;;5014812;28;20483;-74
2021/04/15 12:23:48;;;;;;;18.30;17.20;;;15.80;62.90;;;;;;5014778;28;20825;-76
2021/04/15 12:26:22;;;;;;;18.27;17.17;;;16.20;63.80;;;;;;5021093;28;20461;-76
2021/04/15 12:29:00;;;;;;;17.97;16.60;;;16.30;60.80;;;;;;5011645;28;20481;-76
2021/04/15 12:31:32;;;;;;;15.77;14.87;;;17.10;59.20;;;;;;5018378;28;20496;-74
2021/04/15 12:34:32;;;;;;;16.57;15.47;;;17.80;54.30;;;;;;5020643;28;20465;-75
2021/04/15 12:37:04;;;;;;;18.37;16.67;;;18.40;52.70;;;;;;5023625;28;20473;-76
2021/04/15 12:39:41;;;;;;;17.70;16.50;;;18.20;55.40;;;;;;5015247;28;20465;-77
2021/04/15 12:42:08;;;;;;;17.10;16.00;;;19.20;55.30;;;;;;5016298;28;20456;-76
2021/04/15 12:44:35;;;;;;;17.30;16.17;;;20.40;54.30;;;;;;5020982;28;20562;-76
2021/04/15 12:47:02;;;;;;;17.60;16.23;;;20.80;53.00;;;;;;5016125;28;20979;-77
2021/04/15 12:49:35;;;;;;;17.77;16.37;;;21.00;53.50;;;;;;5020213;28;20474;-76
2021/04/15 12:52:07;;;;;;;16.33;15.43;;;21.00;51.50;;;;;;5017630;28;20482;-76
2021/04/15 12:54:37;;;;;;;16.53;15.60;;;20.40;50.50;;;;;;5018780;28;20840;-76
2021/04/15 12:57:07;;;;;;;16.73;15.73;;;18.60;50.00;;;;;;5016384;28;20461;-77
2021/04/15 12:59:35;;;;;;;17.90;16.27;;;16.60;52.10;;;;;;5014414;28;20564;-77
2021/04/15 13:02:04;;;;;;;16.90;15.70;;;16.30;54.40;;;;;;5018326;28;20477;-75
2021/04/15 13:04:46;;;;;;;17.40;16.30;;;15.60;54.50;;;;;;5019383;28;20524;-77
2021/04/15 13:07:31;;;;;;;17.37;16.27;;;16.60;52.90;;;;;;5017451;28;20831;-77
2021/04/15 13:10:21;;;;;;;16.13;15.07;;;17.70;51.90;;;;;;5017729;28;20466;-76
2021/04/15 13:12:48;;;;;;;17.30;16.00;;;19.70;51.30;;;;;;5018836;28;20479;-76
2021/04/15 13:15:39;;;;;;;16.30;15.30;;;20.10;50.80;;;;;;5013375;28;20458;-76
2021/04/15 13:18:08;;;;;;;14.80;14.10;;;18.20;49.50;;;;;;5017241;28;20472;-77
2021/04/15 13:20:41;;;;;;;15.80;14.90;;;18.00;48.60;;;;;;5011784;28;20743;-76